createdAt,value
2023-02-13T00:01:47.063Z,4.20
2023-02-13T00:04:15.567Z,4.40
2023-02-13T00:06:44.658Z,4.30
2023-02-13T00:09:13.392Z,4.40
2023-02-13T00:11:43.453Z,4.50
2023-02-13T00:14:12.125Z,4.60
2023-02-13T00:16:40.687Z,4.60
2023-02-13T00:19:09.241Z,4.60
2023-02-13T00:21:37.830Z,4.70
2023-02-13T00:24:07.796Z,4.70
2023-02-13T00:26:36.837Z,4.60
2023-02-13T00:29:06.903Z,4.60
2023-02-13T00:31:35.630Z,4.80
2023-02-13T00:34:04.312Z,4.60
2023-02-13T00:36:32.865Z,4.70
2023-02-13T00:39:01.817Z,4.70
2023-02-13T00:41:30.923Z,4.70
2023-02-13T00:44:00.578Z,4.60
2023-02-13T00:46:30.718Z,4.60
2023-02-13T00:48:59.377Z,4.60
2023-02-13T00:51:27.981Z,4.70
2023-02-13T00:53:56.471Z,4.70
2023-02-13T00:56:25.362Z,4.80
2023-02-13T00:58:54.026Z,4.70
2023-02-13T01:01:22.631Z,4.90
2023-02-13T01:03:52.780Z,4.80
2023-02-13T01:06:21.543Z,4.80
2023-02-13T01:08:50.143Z,4.80
2023-02-13T01:11:19.423Z,5.00
2023-02-13T01:13:48.960Z,4.90
2023-02-13T01:16:18.086Z,4.90
2023-02-13T01:18:46.899Z,4.90
2023-02-13T01:21:23.404Z,4.90
2023-02-13T01:23:55.298Z,4.90
2023-02-13T01:26:26.674Z,4.90
2023-02-13T01:28:58.106Z,5.10
2023-02-13T01:31:27.623Z,5.10
2023-02-13T01:33:58.909Z,4.90
2023-02-13T01:36:29.218Z,5.00
2023-02-13T01:39:00.150Z,5.10
2023-02-13T01:41:29.825Z,5.10
2023-02-13T01:44:01.254Z,5.10
2023-02-13T01:46:35.208Z,5.00
2023-02-13T01:49:15.274Z,4.90
2023-02-13T01:51:48.533Z,5.10
2023-02-13T01:54:20.824Z,5.00
2023-02-13T01:56:54.959Z,5.10
2023-02-13T01:59:30.533Z,5.10
2023-02-13T02:02:02.389Z,5.10
2023-02-13T02:04:36.119Z,5.00
2023-02-13T02:07:12.898Z,5.00
2023-02-13T02:09:44.597Z,5.00
2023-02-13T02:12:25.124Z,5.00
2023-02-13T02:14:57.536Z,5.10
2023-02-13T02:17:28.054Z,5.10
2023-02-13T02:20:16.382Z,4.90
2023-02-13T02:23:43.546Z,4.90
2023-02-13T02:27:01.355Z,4.90
2023-02-13T02:30:27.450Z,5.00
2023-02-13T02:33:14.327Z,5.00
2023-02-13T02:35:57.047Z,5.00
2023-02-13T02:38:48.055Z,5.00
2023-02-13T02:41:45.217Z,5.20
2023-02-13T02:44:32.380Z,5.20
2023-02-13T02:47:31.433Z,5.20
2023-02-13T02:50:27.455Z,5.10
2023-02-13T02:53:11.772Z,5.30
2023-02-13T02:55:47.132Z,4.90
2023-02-13T02:58:42.669Z,4.90
2023-02-13T03:01:35.270Z,5.20
2023-02-13T03:04:23.960Z,5.30
2023-02-13T03:06:59.638Z,5.10
2023-02-13T03:09:54.115Z,5.10
2023-02-13T03:12:44.627Z,5.20
2023-02-13T03:15:13.409Z,5.20
2023-02-13T03:17:59.889Z,5.30
2023-02-13T03:21:01.440Z,5.20
2023-02-13T03:23:46.517Z,5.20
2023-02-13T03:26:50.791Z,5.10
2023-02-13T03:29:51.929Z,5.10
2023-02-13T03:32:29.848Z,5.10
2023-02-13T03:35:34.392Z,5.10
2023-02-13T03:38:13.255Z,5.20
2023-02-13T03:41:09.577Z,5.30
2023-02-13T03:43:50.665Z,5.30
2023-02-13T03:46:21.894Z,5.50
2023-02-13T03:49:07.770Z,5.30
2023-02-13T03:51:42.419Z,5.50
2023-02-13T03:54:21.971Z,5.40
2023-02-13T03:57:12.243Z,5.40
2023-02-13T03:59:41.126Z,5.40
2023-02-13T04:02:15.282Z,5.50
2023-02-13T04:04:55.363Z,5.40
2023-02-13T04:07:33.303Z,5.40
2023-02-13T04:10:05.772Z,5.40
2023-02-13T04:12:49.580Z,5.50
2023-02-13T04:15:27.113Z,5.50
2023-02-13T04:18:04.617Z,5.40
2023-02-13T04:20:34.102Z,5.40
2023-02-13T04:23:07.845Z,5.20
2023-02-13T04:25:40.718Z,5.40
2023-02-13T04:28:10.745Z,5.20
2023-02-13T04:30:39.621Z,5.10
2023-02-13T04:33:08.384Z,5.20
2023-02-13T04:35:37.177Z,4.90
2023-02-13T04:38:06.085Z,4.90
2023-02-13T04:40:37.076Z,4.90
2023-02-13T04:43:05.879Z,5.10
2023-02-13T04:45:35.880Z,4.70
2023-02-13T04:48:04.405Z,4.70
2023-02-13T04:50:32.918Z,4.60
2023-02-13T04:53:01.540Z,4.60
2023-02-13T04:55:30.181Z,4.60
2023-02-13T04:57:59.078Z,4.60
2023-02-13T05:00:30.378Z,4.70
2023-02-13T05:03:08.382Z,4.60
2023-02-13T05:05:37.920Z,4.40
2023-02-13T05:08:07.108Z,4.50
2023-02-13T05:10:36.027Z,4.60
2023-02-13T05:13:04.971Z,4.60
2023-02-13T05:15:33.800Z,4.50
2023-02-13T05:18:03.759Z,4.60
2023-02-13T05:20:32.257Z,4.60
2023-02-13T05:23:18.696Z,4.60
2023-02-13T05:25:47.242Z,4.40
2023-02-13T05:28:30.168Z,4.50
2023-02-13T05:30:59.251Z,4.50
2023-02-13T05:33:29.480Z,4.70
2023-02-13T05:35:58.098Z,4.70
2023-02-13T05:38:26.837Z,4.60
2023-02-13T05:40:55.962Z,4.70
2023-02-13T05:43:24.818Z,4.60
2023-02-13T05:45:53.437Z,4.80
2023-02-13T05:48:21.881Z,4.60
2023-02-13T05:50:51.788Z,4.60
2023-02-13T05:53:20.273Z,4.70
2023-02-13T05:55:50.997Z,4.80
2023-02-13T05:58:20.328Z,4.60
2023-02-13T06:00:49.635Z,4.50
2023-02-13T06:03:18.180Z,4.50
2023-02-13T06:05:46.867Z,4.60
2023-02-13T06:08:16.792Z,4.50
2023-02-13T06:10:45.688Z,4.60
2023-02-13T06:13:14.296Z,4.50
2023-02-13T06:15:43.692Z,4.50
2023-02-13T06:18:13.010Z,4.50
2023-02-13T06:20:41.586Z,4.50
2023-02-13T06:23:10.236Z,4.60
2023-02-13T06:25:40.274Z,4.50
2023-02-13T06:28:09.609Z,4.60
2023-02-13T06:30:38.288Z,4.60
2023-02-13T06:33:06.761Z,4.50
2023-02-13T06:35:35.397Z,4.50
2023-02-13T06:38:03.992Z,4.50
2023-02-13T06:40:32.706Z,4.20
2023-02-13T06:43:02.676Z,4.20
2023-02-13T06:45:31.164Z,4.30
2023-02-13T06:47:59.795Z,4.30
2023-02-13T06:50:28.330Z,4.40
2023-02-13T06:52:56.889Z,4.30
2023-02-13T06:55:25.508Z,4.30
2023-02-13T06:57:54.019Z,4.40
2023-02-13T07:00:26.196Z,4.40
2023-02-13T07:02:55.683Z,4.50
2023-02-13T07:05:24.455Z,4.50
2023-02-13T07:07:53.044Z,4.60
2023-02-13T07:10:21.833Z,4.80
2023-02-13T07:13:03.700Z,4.70
2023-02-13T07:15:36.360Z,4.80
2023-02-13T07:18:06.509Z,4.90
2023-02-13T07:20:35.449Z,4.70
2023-02-13T07:23:06.768Z,4.80
2023-02-13T07:25:36.078Z,4.70
2023-02-13T07:28:06.413Z,4.80
2023-02-13T07:30:36.940Z,4.60
2023-02-13T07:33:06.570Z,4.60
2023-02-13T07:35:36.284Z,4.60
2023-02-13T07:38:05.521Z,4.50
2023-02-13T07:40:34.039Z,4.50
2023-02-13T07:43:03.281Z,4.50
2023-02-13T07:45:32.184Z,4.50
2023-02-13T07:48:02.148Z,4.60
2023-02-13T07:50:31.070Z,4.60
2023-02-13T07:53:01.453Z,4.50
2023-02-13T07:55:32.990Z,4.40
2023-02-13T07:58:03.245Z,4.40
2023-02-13T08:00:31.922Z,4.40
2023-02-13T08:03:02.772Z,4.50
2023-02-13T08:05:34.233Z,4.60
2023-02-13T08:08:03.040Z,4.50
2023-02-13T08:10:49.151Z,4.50
2023-02-13T08:13:18.765Z,4.60
2023-02-13T08:15:47.372Z,4.80
2023-02-13T08:18:18.982Z,4.60
2023-02-13T08:20:48.608Z,4.70
2023-02-13T08:23:17.208Z,4.60
2023-02-13T08:25:47.754Z,4.80
2023-02-13T08:28:16.572Z,4.60
2023-02-13T08:30:45.193Z,4.80
2023-02-13T08:33:13.842Z,4.80
2023-02-13T08:35:43.804Z,4.80
2023-02-13T08:38:12.248Z,4.90
2023-02-13T08:40:40.846Z,4.90
2023-02-13T08:43:09.355Z,4.70
2023-02-13T08:45:38.133Z,4.80
2023-02-13T08:48:07.713Z,5.00
2023-02-13T08:50:37.395Z,4.80
2023-02-13T08:53:07.663Z,5.00
2023-02-13T08:55:36.275Z,5.10
2023-02-13T08:58:06.297Z,5.10
2023-02-13T09:00:34.899Z,5.00
2023-02-13T09:03:05.175Z,5.10
2023-02-13T09:05:33.777Z,4.90
2023-02-13T09:08:03.818Z,5.10
2023-02-13T09:10:34.631Z,5.10
2023-02-13T09:13:03.364Z,5.10
2023-02-13T09:15:32.516Z,5.20
2023-02-13T09:18:01.340Z,5.20
2023-02-13T09:20:30.035Z,5.30
2023-02-13T09:22:58.685Z,5.20
2023-02-13T09:25:27.691Z,5.10
2023-02-13T09:27:57.809Z,5.10
2023-02-13T09:30:26.403Z,5.00
2023-02-13T09:32:56.399Z,5.30
2023-02-13T09:35:25.563Z,5.30
2023-02-13T09:37:54.168Z,4.90
2023-02-13T09:40:30.660Z,4.90
2023-02-13T09:43:09.671Z,4.80
2023-02-13T09:45:39.497Z,4.90
2023-02-13T09:48:16.648Z,4.80
2023-02-13T09:50:45.246Z,5.00
2023-02-13T09:53:25.696Z,5.00
2023-02-13T09:56:09.945Z,5.10
2023-02-13T09:58:48.608Z,5.20
2023-02-13T10:01:32.288Z,5.20
2023-02-13T10:04:31.124Z,5.40
2023-02-13T10:07:19.327Z,5.40
2023-02-13T10:10:02.028Z,5.50
2023-02-13T10:12:56.138Z,5.50
2023-02-13T10:15:38.501Z,5.50
2023-02-13T10:18:14.107Z,5.50
2023-02-13T10:20:48.611Z,5.80
2023-02-13T10:23:26.027Z,5.80
2023-02-13T10:26:01.674Z,6.00
2023-02-13T10:28:40.634Z,5.90
2023-02-13T10:31:15.740Z,6.20
2023-02-13T10:33:52.240Z,6.20
2023-02-13T10:36:26.814Z,6.40
2023-02-13T10:39:02.971Z,6.40
2023-02-13T10:41:45.682Z,6.40
2023-02-13T10:44:48.894Z,6.40
2023-02-13T10:47:39.052Z,6.40
2023-02-13T10:50:22.294Z,6.40
2023-02-13T10:53:07.069Z,6.40
2023-02-13T10:56:23.114Z,6.30
2023-02-13T10:59:25.130Z,6.40
2023-02-13T11:02:00.602Z,6.40
2023-02-13T11:04:31.459Z,6.40
2023-02-13T11:07:04.023Z,6.20
2023-02-13T11:09:41.395Z,6.10
2023-02-13T11:12:29.020Z,6.00
2023-02-13T11:15:00.946Z,6.10
2023-02-13T11:17:33.963Z,6.10
2023-02-13T11:20:09.632Z,6.10
2023-02-13T11:22:42.977Z,6.00
2023-02-13T11:25:24.279Z,6.00
2023-02-13T11:28:09.513Z,6.00
2023-02-13T11:30:40.543Z,6.10
2023-02-13T11:33:25.649Z,6.10
2023-02-13T11:36:09.148Z,6.20
2023-02-13T11:38:38.484Z,6.20
2023-02-13T11:41:11.932Z,6.20
2023-02-13T11:43:49.514Z,6.30
2023-02-13T11:46:23.142Z,6.40
2023-02-13T11:49:02.667Z,6.40
2023-02-13T11:51:53.239Z,6.50
2023-02-13T11:54:30.350Z,6.60
2023-02-13T11:57:05.162Z,6.60
2023-02-13T11:59:42.646Z,6.70
2023-02-13T12:02:20.444Z,6.70
2023-02-13T12:04:51.999Z,6.90
2023-02-13T12:07:29.000Z,6.70
2023-02-13T12:10:04.099Z,6.50
2023-02-13T12:12:44.078Z,6.50
2023-02-13T12:15:21.966Z,6.60
2023-02-13T12:18:05.332Z,6.60
2023-02-13T12:20:51.131Z,6.50
2023-02-13T12:23:42.451Z,6.60
2023-02-13T12:26:30.133Z,6.70
2023-02-13T12:29:50.536Z,6.70
2023-02-13T12:32:22.555Z,6.60
2023-02-13T12:35:28.309Z,6.90
2023-02-13T12:38:08.409Z,6.70
2023-02-13T12:41:19.064Z,6.60
2023-02-13T12:44:29.265Z,6.70
2023-02-13T12:47:23.109Z,6.50
2023-02-13T12:50:29.698Z,6.60
2023-02-13T12:53:16.829Z,6.60
2023-02-13T12:56:26.138Z,6.70
2023-02-13T12:59:05.625Z,6.60
2023-02-13T13:02:04.827Z,6.50
2023-02-13T13:04:56.523Z,6.40
2023-02-13T13:07:52.861Z,6.50
2023-02-13T13:10:49.157Z,6.50
2023-02-13T13:13:38.934Z,6.60
2023-02-13T13:16:17.938Z,6.70
2023-02-13T13:19:06.225Z,6.60
2023-02-13T13:21:49.553Z,6.40
2023-02-13T13:24:43.211Z,6.20
2023-02-13T13:27:21.744Z,6.10
2023-02-13T13:29:59.400Z,6.10
2023-02-13T13:32:30.153Z,6.20
2023-02-13T13:35:00.445Z,6.20
2023-02-13T13:37:38.747Z,6.20
2023-02-13T13:40:29.108Z,6.20
2023-02-13T13:43:06.785Z,6.30
2023-02-13T13:45:50.234Z,6.40
2023-02-13T13:48:52.798Z,6.40
2023-02-13T13:51:21.894Z,6.50
2023-02-13T13:54:38.588Z,6.40
2023-02-13T13:57:16.301Z,6.40
2023-02-13T14:00:27.145Z,6.50
2023-02-13T14:03:34.671Z,6.30
2023-02-13T14:06:07.873Z,6.40
2023-02-13T14:09:09.691Z,6.50
2023-02-13T14:11:47.139Z,6.50
2023-02-13T14:14:55.654Z,6.40
2023-02-13T14:17:53.190Z,6.30
2023-02-13T14:20:41.472Z,6.10
2023-02-13T14:23:50.285Z,6.00
2023-02-13T14:26:38.033Z,6.40
2023-02-13T14:29:31.463Z,6.10
2023-02-13T14:32:08.426Z,6.20
2023-02-13T14:34:40.750Z,6.20
2023-02-13T14:37:30.321Z,6.20
2023-02-13T14:40:43.422Z,6.10
2023-02-13T14:43:40.208Z,6.00
2023-02-13T14:46:35.810Z,5.90
2023-02-13T14:49:13.071Z,5.70
2023-02-13T14:51:48.661Z,5.60
2023-02-13T14:54:28.766Z,5.60
2023-02-13T14:57:07.523Z,5.60
2023-02-13T14:59:41.447Z,5.70
2023-02-13T15:02:22.212Z,5.60
2023-02-13T15:04:57.385Z,5.70
2023-02-13T15:07:30.648Z,5.50
2023-02-13T15:10:05.595Z,5.70
2023-02-13T15:12:36.722Z,5.50
2023-02-13T15:15:25.780Z,5.50
2023-02-13T15:18:00.543Z,5.40
2023-02-13T15:20:34.343Z,5.30
2023-02-13T15:23:06.689Z,5.10
2023-02-13T15:25:40.018Z,5.20
2023-02-13T15:28:21.139Z,5.10
2023-02-13T15:31:00.588Z,5.00
2023-02-13T15:33:36.404Z,5.00
2023-02-13T15:36:07.709Z,4.90
2023-02-13T15:38:39.419Z,4.90
2023-02-13T15:41:14.468Z,5.20
2023-02-13T15:43:46.994Z,5.20
2023-02-13T15:46:22.729Z,5.10
2023-02-13T15:48:51.915Z,4.90
2023-02-13T15:51:22.103Z,4.90
2023-02-13T15:53:54.379Z,5.00
2023-02-13T15:56:25.523Z,5.00
2023-02-13T15:58:56.097Z,5.10
2023-02-13T16:01:25.658Z,5.20
2023-02-13T16:04:04.020Z,5.30
2023-02-13T16:06:34.404Z,5.20
2023-02-13T16:09:06.169Z,5.10
2023-02-13T16:11:38.355Z,5.00
2023-02-13T16:14:18.591Z,5.00
2023-02-13T16:16:56.297Z,4.80
2023-02-13T16:19:30.315Z,4.50
2023-02-13T16:22:04.497Z,4.40
2023-02-13T16:24:33.546Z,4.50
2023-02-13T16:27:04.069Z,4.50
2023-02-13T16:29:32.902Z,4.50
2023-02-13T16:32:19.342Z,4.50
2023-02-13T16:34:48.291Z,4.50
2023-02-13T16:37:30.101Z,4.50
2023-02-13T16:39:58.990Z,4.60
2023-02-13T16:42:30.071Z,4.60
2023-02-13T16:45:23.496Z,4.50
2023-02-13T16:48:03.559Z,4.60
2023-02-13T16:50:33.352Z,4.70
2023-02-13T16:53:07.468Z,4.70
2023-02-13T16:55:36.413Z,4.70
2023-02-13T16:58:07.524Z,4.70
2023-02-13T17:00:36.823Z,4.70
2023-02-13T17:03:10.916Z,4.70
2023-02-13T17:05:40.035Z,4.70
2023-02-13T17:08:11.242Z,4.70
2023-02-13T17:10:42.551Z,4.70
2023-02-13T17:13:19.480Z,4.70
2023-02-13T17:15:49.803Z,4.90
2023-02-13T17:18:18.351Z,4.70
2023-02-13T17:20:47.506Z,4.70
2023-02-13T17:23:20.242Z,4.70
2023-02-13T17:25:49.740Z,4.80
2023-02-13T17:28:23.198Z,4.60
2023-02-13T17:30:54.382Z,4.50
2023-02-13T17:33:27.722Z,4.40
2023-02-13T17:35:57.376Z,4.40
2023-02-13T17:38:26.417Z,4.40
2023-02-13T17:40:55.122Z,4.40
2023-02-13T17:43:27.017Z,4.30
2023-02-13T17:45:55.592Z,4.40
2023-02-13T17:48:24.743Z,4.50
2023-02-13T17:50:53.437Z,4.30
2023-02-13T17:53:26.235Z,4.30
2023-02-13T17:55:55.107Z,4.30
2023-02-13T17:58:25.157Z,4.20
2023-02-13T18:00:53.951Z,4.10
2023-02-13T18:03:22.550Z,4.10
2023-02-13T18:05:51.500Z,4.10
2023-02-13T18:08:20.247Z,4.00
2023-02-13T18:10:48.746Z,4.00
2023-02-13T18:13:17.616Z,3.90
2023-02-13T18:15:47.593Z,4.00
2023-02-13T18:18:17.746Z,4.10
2023-02-13T18:20:46.814Z,4.10
2023-02-13T18:23:15.321Z,4.00
2023-02-13T18:25:43.759Z,4.00
2023-02-13T18:28:12.170Z,4.10
2023-02-13T18:30:43.677Z,4.20
2023-02-13T18:33:13.743Z,4.00
2023-02-13T18:35:42.487Z,4.00
2023-02-13T18:38:10.964Z,3.80
2023-02-13T18:40:39.493Z,3.70
2023-02-13T18:43:07.993Z,3.70
2023-02-13T18:45:38.844Z,3.70
2023-02-13T18:48:09.278Z,3.90
2023-02-13T18:50:41.947Z,3.80
2023-02-13T18:53:11.254Z,3.80
2023-02-13T18:55:40.374Z,3.70
2023-02-13T18:58:10.776Z,3.70
2023-02-13T19:00:39.352Z,3.70
2023-02-13T19:03:07.828Z,3.80
2023-02-13T19:05:42.784Z,3.90
2023-02-13T19:08:11.511Z,3.90
2023-02-13T19:10:40.575Z,4.00
2023-02-13T19:13:09.157Z,4.10
2023-02-13T19:15:38.060Z,3.90
2023-02-13T19:18:07.024Z,3.90
2023-02-13T19:20:38.580Z,4.00
2023-02-13T19:23:08.775Z,4.00
2023-02-13T19:25:39.364Z,4.10
2023-02-13T19:28:08.305Z,4.20
2023-02-13T19:30:37.666Z,4.20
2023-02-13T19:33:06.625Z,3.90
2023-02-13T19:35:35.465Z,3.90
2023-02-13T19:38:04.177Z,3.80
2023-02-13T19:40:35.220Z,3.80
2023-02-13T19:43:03.626Z,4.10
2023-02-13T19:45:32.209Z,4.20
2023-02-13T19:48:00.821Z,4.10
2023-02-13T19:50:29.310Z,4.10
2023-02-13T19:52:57.756Z,4.30
2023-02-13T19:55:27.267Z,4.10
2023-02-13T19:57:57.352Z,4.00
2023-02-13T20:00:26.079Z,4.10
2023-02-13T20:02:56.571Z,4.10
2023-02-13T20:05:25.376Z,4.40
2023-02-13T20:07:53.874Z,4.20
2023-02-13T20:10:22.655Z,4.20
2023-02-13T20:12:53.873Z,4.30
2023-02-13T20:15:25.052Z,4.30
2023-02-13T20:17:53.916Z,4.50
2023-02-13T20:20:22.585Z,4.50
2023-02-13T20:22:51.292Z,4.20
2023-02-13T20:25:20.210Z,4.10
2023-02-13T20:27:50.666Z,4.00
2023-02-13T20:30:19.741Z,4.10
2023-02-13T20:32:49.761Z,4.10
2023-02-13T20:35:18.457Z,4.00
2023-02-13T20:37:47.153Z,4.00
2023-02-13T20:40:15.875Z,3.90
2023-02-13T20:42:44.417Z,3.80
2023-02-13T20:45:13.074Z,3.80
2023-02-13T20:47:42.884Z,3.70
2023-02-13T20:50:13.389Z,3.90
2023-02-13T20:52:41.959Z,3.70
2023-02-13T20:55:13.562Z,3.80
2023-02-13T20:57:42.049Z,4.10
2023-02-13T21:00:13.385Z,4.20
2023-02-13T21:02:42.007Z,4.00
2023-02-13T21:05:12.066Z,4.10
2023-02-13T21:07:40.700Z,3.90
2023-02-13T21:10:10.483Z,4.10
2023-02-13T21:12:39.125Z,3.90
2023-02-13T21:15:08.465Z,3.90
2023-02-13T21:17:37.054Z,3.90
2023-02-13T21:20:07.577Z,4.10
2023-02-13T21:22:37.723Z,3.90
2023-02-13T21:25:07.201Z,3.80
2023-02-13T21:27:36.040Z,3.80
2023-02-13T21:30:05.276Z,3.70
2023-02-13T21:32:34.000Z,3.80
2023-02-13T21:35:02.536Z,3.80
2023-02-13T21:37:31.532Z,3.80
2023-02-13T21:40:01.907Z,3.90
2023-02-13T21:42:30.875Z,3.70
2023-02-13T21:44:59.945Z,3.50
2023-02-13T21:47:28.594Z,3.40
2023-02-13T21:49:57.105Z,3.40
2023-02-13T21:52:25.710Z,3.40
2023-02-13T21:54:54.365Z,3.50
2023-02-13T21:57:24.509Z,3.60
2023-02-13T21:59:53.055Z,3.40
2023-02-13T22:02:21.722Z,3.50
2023-02-13T22:04:50.267Z,3.60
2023-02-13T22:07:18.886Z,3.60
2023-02-13T22:09:47.634Z,3.60
2023-02-13T22:12:16.212Z,3.70
2023-02-13T22:14:46.273Z,3.70
2023-02-13T22:17:14.868Z,3.60
2023-02-13T22:19:43.443Z,3.70
2023-02-13T22:22:11.924Z,3.40
2023-02-13T22:24:40.377Z,3.40
2023-02-13T22:27:08.898Z,3.50
2023-02-13T22:29:40.772Z,3.50
2023-02-13T22:32:10.727Z,3.50
2023-02-13T22:34:39.403Z,3.70
2023-02-13T22:37:08.522Z,3.70
2023-02-13T22:39:37.059Z,3.80
2023-02-13T22:42:05.741Z,3.80
2023-02-13T22:44:34.226Z,4.00
2023-02-13T22:47:03.381Z,3.70
2023-02-13T22:49:33.150Z,3.70
2023-02-13T22:52:02.063Z,3.90
2023-02-13T22:54:30.799Z,3.80
2023-02-13T22:56:59.214Z,3.80
2023-02-13T22:59:27.768Z,3.90
2023-02-13T23:01:56.443Z,4.00
2023-02-13T23:04:24.992Z,3.90
2023-02-13T23:06:54.945Z,4.10
2023-02-13T23:09:23.450Z,3.90
2023-02-13T23:12:10.027Z,3.90
2023-02-13T23:14:38.534Z,3.90
2023-02-13T23:17:24.463Z,3.90
2023-02-13T23:19:52.913Z,3.80
2023-02-13T23:22:22.805Z,3.70
2023-02-13T23:24:51.459Z,3.60
2023-02-13T23:27:20.021Z,3.60
2023-02-13T23:29:48.566Z,3.60
2023-02-13T23:32:17.148Z,3.80
2023-02-13T23:34:45.730Z,3.70
2023-02-13T23:37:14.347Z,3.60
2023-02-13T23:39:44.731Z,3.80
2023-02-13T23:42:13.316Z,3.80
2023-02-13T23:44:41.896Z,3.90
2023-02-13T23:47:10.427Z,3.90
2023-02-13T23:49:39.002Z,3.90
2023-02-13T23:52:07.967Z,3.70
2023-02-13T23:54:38.203Z,3.70
2023-02-13T23:57:08.329Z,3.70
2023-02-13T23:59:38.648Z,3.60
